Terminal Aerodrome Forecast
Issued by NWS

Home | Current Version | Previous Version | Text Only | Print | Product List | Glossary On
Versions: 1 2 3 4 5 6 7 8 9 10 11 12 13 14 15 16 17 18
000
FTUS43 KEAX 301120
TAFSTJ
TAF
KSTJ 301120Z 3012/3112 00000KT 3SM BR SKC
      TEMPO 3012/3013 1/4SM FG VV001
     FM301400 VRB03KT P6SM SKC
     FM302000 21006KT P6SM SKC
     FM310700 VRB02KT 4SM BR SKC=

USA.gov is the U.S. government's official web portal to all federal, state and local government web resources and services.